sensor_id;sensor_type;location;lat;lon;timestamp;temperature;humidity
54540;SHT30;40438;52.992;18.604;2023-01-29T00:01:35;18.61;54.40
54540;SHT30;40438;52.992;18.604;2023-01-29T00:04:01;18.57;54.47
54540;SHT30;40438;52.992;18.604;2023-01-29T00:06:27;18.54;54.33
54540;SHT30;40438;52.992;18.604;2023-01-29T00:08:54;18.52;54.16
54540;SHT30;40438;52.992;18.604;2023-01-29T00:11:20;18.46;54.34
54540;SHT30;40438;52.992;18.604;2023-01-29T00:13:46;18.50;54.13
54540;SHT30;40438;52.992;18.604;2023-01-29T00:16:12;18.52;54.28
54540;SHT30;40438;52.992;18.604;2023-01-29T00:18:38;18.52;54.24
54540;SHT30;40438;52.992;18.604;2023-01-29T00:21:07;18.43;54.27
54540;SHT30;40438;52.992;18.604;2023-01-29T00:23:33;18.40;54.18
54540;SHT30;40438;52.992;18.604;2023-01-29T00:26:00;18.36;54.48
54540;SHT30;40438;52.992;18.604;2023-01-29T00:28:26;18.39;54.35
54540;SHT30;40438;52.992;18.604;2023-01-29T00:30:52;18.43;54.33
54540;SHT30;40438;52.992;18.604;2023-01-29T00:33:18;18.44;54.35
54540;SHT30;40438;52.992;18.604;2023-01-29T00:35:44;18.43;54.36
54540;SHT30;40438;52.992;18.604;2023-01-29T00:38:10;18.36;54.55
54540;SHT30;40438;52.992;18.604;2023-01-29T00:40:37;18.34;54.47
54540;SHT30;40438;52.992;18.604;2023-01-29T00:43:04;18.23;54.47
54540;SHT30;40438;52.992;18.604;2023-01-29T00:45:31;18.33;54.48
54540;SHT30;40438;52.992;18.604;2023-01-29T00:47:56;18.27;54.31
54540;SHT30;40438;52.992;18.604;2023-01-29T00:50:22;18.30;54.27
54540;SHT30;40438;52.992;18.604;2023-01-29T00:52:48;18.27;54.53
54540;SHT30;40438;52.992;18.604;2023-01-29T00:55:14;18.26;54.49
54540;SHT30;40438;52.992;18.604;2023-01-29T00:57:40;18.23;54.51
54540;SHT30;40438;52.992;18.604;2023-01-29T01:00:10;18.25;54.53
54540;SHT30;40438;52.992;18.604;2023-01-29T01:02:36;18.20;54.48
54540;SHT30;40438;52.992;18.604;2023-01-29T01:05:03;18.20;54.67
54540;SHT30;40438;52.992;18.604;2023-01-29T01:07:29;18.20;54.50
54540;SHT30;40438;52.992;18.604;2023-01-29T01:09:55;18.25;54.57
54540;SHT30;40438;52.992;18.604;2023-01-29T01:12:21;18.10;54.56
54540;SHT30;40438;52.992;18.604;2023-01-29T01:14:47;18.12;54.76
54540;SHT30;40438;52.992;18.604;2023-01-29T01:17:14;18.06;54.70
54540;SHT30;40438;52.992;18.604;2023-01-29T01:19:40;18.12;54.60
54540;SHT30;40438;52.992;18.604;2023-01-29T01:22:06;18.10;54.57
54540;SHT30;40438;52.992;18.604;2023-01-29T01:24:32;18.15;54.64
54540;SHT30;40438;52.992;18.604;2023-01-29T01:26:58;18.02;54.48
54540;SHT30;40438;52.992;18.604;2023-01-29T01:29:24;18.01;54.64
54540;SHT30;40438;52.992;18.604;2023-01-29T01:31:51;18.02;54.70
54540;SHT30;40438;52.992;18.604;2023-01-29T01:34:19;18.09;54.59
54540;SHT30;40438;52.992;18.604;2023-01-29T01:36:45;18.02;54.51
54540;SHT30;40438;52.992;18.604;2023-01-29T01:39:11;17.99;55.01
54540;SHT30;40438;52.992;18.604;2023-01-29T01:41:37;17.98;54.72
54540;SHT30;40438;52.992;18.604;2023-01-29T01:44:03;17.98;54.48
54540;SHT30;40438;52.992;18.604;2023-01-29T01:46:30;17.99;54.79
54540;SHT30;40438;52.992;18.604;2023-01-29T01:48:58;17.95;54.86
54540;SHT30;40438;52.992;18.604;2023-01-29T01:51:29;18.04;54.65
54540;SHT30;40438;52.992;18.604;2023-01-29T01:53:59;17.95;54.68
54540;SHT30;40438;52.992;18.604;2023-01-29T01:56:27;17.94;54.72
54540;SHT30;40438;52.992;18.604;2023-01-29T01:58:55;17.98;54.61
54540;SHT30;40438;52.992;18.604;2023-01-29T02:01:22;17.98;54.39
54540;SHT30;40438;52.992;18.604;2023-01-29T02:03:53;17.92;54.85
54540;SHT30;40438;52.992;18.604;2023-01-29T02:06:20;17.84;54.67
54540;SHT30;40438;52.992;18.604;2023-01-29T02:08:51;17.89;54.83
54540;SHT30;40438;52.992;18.604;2023-01-29T02:11:17;17.88;54.56
54540;SHT30;40438;52.992;18.604;2023-01-29T02:13:44;17.88;54.58
54540;SHT30;40438;52.992;18.604;2023-01-29T02:16:09;17.84;54.46
54540;SHT30;40438;52.992;18.604;2023-01-29T02:18:35;17.79;54.44
54540;SHT30;40438;52.992;18.604;2023-01-29T02:21:11;17.82;54.79
54540;SHT30;40438;52.992;18.604;2023-01-29T02:24:02;17.91;54.86
54540;SHT30;40438;52.992;18.604;2023-01-29T02:26:40;17.91;54.65
54540;SHT30;40438;52.992;18.604;2023-01-29T02:29:15;17.85;54.58
54540;SHT30;40438;52.992;18.604;2023-01-29T02:31:45;17.84;54.72
54540;SHT30;40438;52.992;18.604;2023-01-29T02:34:17;17.88;54.87
54540;SHT30;40438;52.992;18.604;2023-01-29T02:36:46;17.78;54.74
54540;SHT30;40438;52.992;18.604;2023-01-29T02:39:20;17.75;55.10
54540;SHT30;40438;52.992;18.604;2023-01-29T02:41:55;17.78;54.87
54540;SHT30;40438;52.992;18.604;2023-01-29T02:44:28;17.77;54.74
54540;SHT30;40438;52.992;18.604;2023-01-29T02:46:59;17.65;54.94
54540;SHT30;40438;52.992;18.604;2023-01-29T02:49:32;17.67;54.85
54540;SHT30;40438;52.992;18.604;2023-01-29T02:52:02;17.67;54.95
54540;SHT30;40438;52.992;18.604;2023-01-29T02:54:34;17.78;54.93
54540;SHT30;40438;52.992;18.604;2023-01-29T02:57:07;17.67;54.73
54540;SHT30;40438;52.992;18.604;2023-01-29T02:59:39;17.74;54.70
54540;SHT30;40438;52.992;18.604;2023-01-29T03:02:09;17.74;54.44
54540;SHT30;40438;52.992;18.604;2023-01-29T03:04:41;17.68;54.83
54540;SHT30;40438;52.992;18.604;2023-01-29T03:07:12;17.74;54.79
54540;SHT30;40438;52.992;18.604;2023-01-29T03:09:43;17.67;54.53
54540;SHT30;40438;52.992;18.604;2023-01-29T03:12:16;17.57;54.96
54540;SHT30;40438;52.992;18.604;2023-01-29T03:14:46;17.65;54.20
54540;SHT30;40438;52.992;18.604;2023-01-29T03:17:15;17.67;54.63
54540;SHT30;40438;52.992;18.604;2023-01-29T03:19:44;17.55;54.79
54540;SHT30;40438;52.992;18.604;2023-01-29T03:22:20;17.64;54.66
54540;SHT30;40438;52.992;18.604;2023-01-29T03:24:49;17.65;54.65
54540;SHT30;40438;52.992;18.604;2023-01-29T03:27:18;17.71;54.41
54540;SHT30;40438;52.992;18.604;2023-01-29T03:29:47;17.71;54.33
54540;SHT30;40438;52.992;18.604;2023-01-29T03:32:16;17.67;54.47
54540;SHT30;40438;52.992;18.604;2023-01-29T03:34:47;17.63;54.46
54540;SHT30;40438;52.992;18.604;2023-01-29T03:37:16;17.68;53.96
54540;SHT30;40438;52.992;18.604;2023-01-29T03:39:45;17.57;53.65
54540;SHT30;40438;52.992;18.604;2023-01-29T03:42:18;17.61;53.29
54540;SHT30;40438;52.992;18.604;2023-01-29T03:44:53;17.58;53.11
54540;SHT30;40438;52.992;18.604;2023-01-29T03:47:37;17.60;53.23
54540;SHT30;40438;52.992;18.604;2023-01-29T03:50:11;17.61;53.52
54540;SHT30;40438;52.992;18.604;2023-01-29T03:52:43;17.67;52.99
54540;SHT30;40438;52.992;18.604;2023-01-29T03:55:14;18.27;51.54
54540;SHT30;40438;52.992;18.604;2023-01-29T03:57:45;18.46;51.14
54540;SHT30;40438;52.992;18.604;2023-01-29T04:00:19;18.13;50.74
54540;SHT30;40438;52.992;18.604;2023-01-29T04:03:08;17.99;51.14
54540;SHT30;40438;52.992;18.604;2023-01-29T04:05:42;17.96;51.36
54540;SHT30;40438;52.992;18.604;2023-01-29T04:08:19;17.88;51.35
54540;SHT30;40438;52.992;18.604;2023-01-29T04:10:47;17.91;51.48
54540;SHT30;40438;52.992;18.604;2023-01-29T04:13:15;17.86;51.51
54540;SHT30;40438;52.992;18.604;2023-01-29T04:15:48;17.86;51.63
54540;SHT30;40438;52.992;18.604;2023-01-29T04:18:16;17.85;51.67
54540;SHT30;40438;52.992;18.604;2023-01-29T04:21:01;17.79;52.04
54540;SHT30;40438;52.992;18.604;2023-01-29T04:23:28;17.78;51.90
54540;SHT30;40438;52.992;18.604;2023-01-29T04:26:07;17.65;52.04
54540;SHT30;40438;52.992;18.604;2023-01-29T04:28:47;17.70;52.27
54540;SHT30;40438;52.992;18.604;2023-01-29T04:31:17;17.64;52.00
54540;SHT30;40438;52.992;18.604;2023-01-29T04:33:53;17.63;52.52
54540;SHT30;40438;52.992;18.604;2023-01-29T04:36:33;17.61;52.68
54540;SHT30;40438;52.992;18.604;2023-01-29T04:39:06;17.63;52.60
54540;SHT30;40438;52.992;18.604;2023-01-29T04:41:39;17.67;52.80
54540;SHT30;40438;52.992;18.604;2023-01-29T04:44:12;17.77;52.53
54540;SHT30;40438;52.992;18.604;2023-01-29T04:46:46;17.73;52.56
54540;SHT30;40438;52.992;18.604;2023-01-29T04:49:23;17.78;52.58
54540;SHT30;40438;52.992;18.604;2023-01-29T04:52:00;17.73;52.43
54540;SHT30;40438;52.992;18.604;2023-01-29T04:54:36;17.77;52.59
54540;SHT30;40438;52.992;18.604;2023-01-29T04:57:10;17.81;52.67
54540;SHT30;40438;52.992;18.604;2023-01-29T04:59:40;17.74;52.80
54540;SHT30;40438;52.992;18.604;2023-01-29T05:02:09;17.86;52.95
54540;SHT30;40438;52.992;18.604;2023-01-29T05:04:38;17.78;52.89
54540;SHT30;40438;52.992;18.604;2023-01-29T05:07:06;17.73;53.04
54540;SHT30;40438;52.992;18.604;2023-01-29T05:09:33;17.82;53.05
54540;SHT30;40438;52.992;18.604;2023-01-29T05:12:01;17.74;53.21
54540;SHT30;40438;52.992;18.604;2023-01-29T05:14:29;17.70;53.33
54540;SHT30;40438;52.992;18.604;2023-01-29T05:17:02;17.75;53.55
54540;SHT30;40438;52.992;18.604;2023-01-29T05:19:31;17.86;53.32
54540;SHT30;40438;52.992;18.604;2023-01-29T05:21:57;17.81;53.18
54540;SHT30;40438;52.992;18.604;2023-01-29T05:24:24;17.67;53.54
54540;SHT30;40438;52.992;18.604;2023-01-29T05:26:52;17.68;53.47
54540;SHT30;40438;52.992;18.604;2023-01-29T05:29:19;17.65;53.63
54540;SHT30;40438;52.992;18.604;2023-01-29T05:31:45;17.70;53.65
54540;SHT30;40438;52.992;18.604;2023-01-29T05:34:10;17.64;53.60
54540;SHT30;40438;52.992;18.604;2023-01-29T05:36:38;17.77;53.34
54540;SHT30;40438;52.992;18.604;2023-01-29T05:39:03;17.77;53.38
54540;SHT30;40438;52.992;18.604;2023-01-29T05:41:29;17.64;53.65
54540;SHT30;40438;52.992;18.604;2023-01-29T05:43:55;17.60;53.71
54540;SHT30;40438;52.992;18.604;2023-01-29T05:46:21;17.64;53.58
54540;SHT30;40438;52.992;18.604;2023-01-29T05:48:46;17.63;53.45
54540;SHT30;40438;52.992;18.604;2023-01-29T05:51:12;17.60;53.68
54540;SHT30;40438;52.992;18.604;2023-01-29T05:53:39;17.65;53.57
54540;SHT30;40438;52.992;18.604;2023-01-29T05:56:05;17.63;53.50
54540;SHT30;40438;52.992;18.604;2023-01-29T05:58:32;17.64;53.54
54540;SHT30;40438;52.992;18.604;2023-01-29T06:01:07;17.55;53.62
54540;SHT30;40438;52.992;18.604;2023-01-29T06:03:33;17.50;52.90
54540;SHT30;40438;52.992;18.604;2023-01-29T06:06:00;17.99;52.18
54540;SHT30;40438;52.992;18.604;2023-01-29T06:08:26;18.46;51.26
54540;SHT30;40438;52.992;18.604;2023-01-29T06:10:53;18.80;50.65
54540;SHT30;40438;52.992;18.604;2023-01-29T06:13:19;19.16;49.80
54540;SHT30;40438;52.992;18.604;2023-01-29T06:15:45;19.25;48.86
54540;SHT30;40438;52.992;18.604;2023-01-29T06:18:10;19.28;48.91
54540;SHT30;40438;52.992;18.604;2023-01-29T06:20:36;19.47;48.66
54540;SHT30;40438;52.992;18.604;2023-01-29T06:23:02;19.60;48.06
54540;SHT30;40438;52.992;18.604;2023-01-29T06:25:28;19.57;48.14
54540;SHT30;40438;52.992;18.604;2023-01-29T06:27:55;19.53;47.75
54540;SHT30;40438;52.992;18.604;2023-01-29T06:30:21;19.70;48.03
54540;SHT30;40438;52.992;18.604;2023-01-29T06:32:46;19.91;47.74
54540;SHT30;40438;52.992;18.604;2023-01-29T06:35:12;19.96;47.73
54540;SHT30;40438;52.992;18.604;2023-01-29T06:37:38;20.00;47.48
54540;SHT30;40438;52.992;18.604;2023-01-29T06:40:05;20.01;47.36
54540;SHT30;40438;52.992;18.604;2023-01-29T06:42:31;20.05;47.49
54540;SHT30;40438;52.992;18.604;2023-01-29T06:44:58;20.10;47.34
54540;SHT30;40438;52.992;18.604;2023-01-29T06:47:24;20.04;47.46
54540;SHT30;40438;52.992;18.604;2023-01-29T06:49:51;20.17;47.20
54540;SHT30;40438;52.992;18.604;2023-01-29T06:52:17;20.25;47.14
54540;SHT30;40438;52.992;18.604;2023-01-29T06:54:43;20.21;47.21
54540;SHT30;40438;52.992;18.604;2023-01-29T06:57:08;20.21;47.11
54540;SHT30;40438;52.992;18.604;2023-01-29T06:59:34;20.24;47.07
54540;SHT30;40438;52.992;18.604;2023-01-29T07:02:02;20.18;47.04
54540;SHT30;40438;52.992;18.604;2023-01-29T07:04:28;20.32;46.93
54540;SHT30;40438;52.992;18.604;2023-01-29T07:06:54;20.38;46.81
54540;SHT30;40438;52.992;18.604;2023-01-29T07:09:19;20.36;46.89
54540;SHT30;40438;52.992;18.604;2023-01-29T07:11:45;20.35;47.05
54540;SHT30;40438;52.992;18.604;2023-01-29T07:14:11;20.36;47.00
54540;SHT30;40438;52.992;18.604;2023-01-29T07:16:36;20.36;47.04
54540;SHT30;40438;52.992;18.604;2023-01-29T07:19:04;20.38;47.07
54540;SHT30;40438;52.992;18.604;2023-01-29T07:21:29;20.48;46.94
54540;SHT30;40438;52.992;18.604;2023-01-29T07:23:56;20.45;46.98
54540;SHT30;40438;52.992;18.604;2023-01-29T07:26:21;20.46;47.06
54540;SHT30;40438;52.992;18.604;2023-01-29T07:28:47;20.43;47.07
54540;SHT30;40438;52.992;18.604;2023-01-29T07:31:13;20.51;47.06
54540;SHT30;40438;52.992;18.604;2023-01-29T07:33:39;20.49;46.97
54540;SHT30;40438;52.992;18.604;2023-01-29T07:36:08;20.49;46.96
54540;SHT30;40438;52.992;18.604;2023-01-29T07:38:34;20.57;46.74
54540;SHT30;40438;52.992;18.604;2023-01-29T07:41:00;20.59;46.73
54540;SHT30;40438;52.992;18.604;2023-01-29T07:43:26;20.56;46.77
54540;SHT30;40438;52.992;18.604;2023-01-29T07:45:51;20.53;46.88
54540;SHT30;40438;52.992;18.604;2023-01-29T07:48:17;20.59;46.68
54540;SHT30;40438;52.992;18.604;2023-01-29T07:50:43;20.57;46.68
54540;SHT30;40438;52.992;18.604;2023-01-29T07:53:13;20.63;46.61
54540;SHT30;40438;52.992;18.604;2023-01-29T07:55:39;20.62;46.87
54540;SHT30;40438;52.992;18.604;2023-01-29T07:58:05;20.52;47.35
54540;SHT30;40438;52.992;18.604;2023-01-29T08:00:31;20.60;46.98
54540;SHT30;40438;52.992;18.604;2023-01-29T08:03:01;20.69;46.55
54540;SHT30;40438;52.992;18.604;2023-01-29T08:05:27;20.53;47.53
54540;SHT30;40438;52.992;18.604;2023-01-29T08:07:53;20.97;46.81
54540;SHT30;40438;52.992;18.604;2023-01-29T08:10:20;21.26;46.14
54540;SHT30;40438;52.992;18.604;2023-01-29T08:12:46;21.27;46.48
54540;SHT30;40438;52.992;18.604;2023-01-29T08:15:12;21.14;46.90
54540;SHT30;40438;52.992;18.604;2023-01-29T08:17:37;21.00;47.34
54540;SHT30;40438;52.992;18.604;2023-01-29T08:20:04;20.96;47.11
54540;SHT30;40438;52.992;18.604;2023-01-29T08:22:30;20.91;47.37
54540;SHT30;40438;52.992;18.604;2023-01-29T08:24:56;20.87;47.16
54540;SHT30;40438;52.992;18.604;2023-01-29T08:27:23;20.86;47.43
54540;SHT30;40438;52.992;18.604;2023-01-29T08:29:48;20.84;47.45
54540;SHT30;40438;52.992;18.604;2023-01-29T08:32:14;20.84;47.68
54540;SHT30;40438;52.992;18.604;2023-01-29T08:34:40;20.80;47.51
54540;SHT30;40438;52.992;18.604;2023-01-29T08:37:06;20.79;48.04
54540;SHT30;40438;52.992;18.604;2023-01-29T08:39:32;20.84;47.73
54540;SHT30;40438;52.992;18.604;2023-01-29T08:41:57;20.83;47.82
54540;SHT30;40438;52.992;18.604;2023-01-29T08:44:24;20.72;48.02
54540;SHT30;40438;52.992;18.604;2023-01-29T08:46:50;20.73;48.17
54540;SHT30;40438;52.992;18.604;2023-01-29T08:49:16;20.76;48.19
54540;SHT30;40438;52.992;18.604;2023-01-29T08:51:42;20.83;48.17
54540;SHT30;40438;52.992;18.604;2023-01-29T08:54:07;20.80;48.23
54540;SHT30;40438;52.992;18.604;2023-01-29T08:56:33;20.75;48.04
54540;SHT30;40438;52.992;18.604;2023-01-29T08:58:59;20.62;48.56
54540;SHT30;40438;52.992;18.604;2023-01-29T09:01:26;20.82;48.13
54540;SHT30;40438;52.992;18.604;2023-01-29T09:03:52;20.84;47.89
54540;SHT30;40438;52.992;18.604;2023-01-29T09:06:18;20.82;47.76
54540;SHT30;40438;52.992;18.604;2023-01-29T09:08:43;20.84;48.00
54540;SHT30;40438;52.992;18.604;2023-01-29T09:11:09;20.83;47.77
54540;SHT30;40438;52.992;18.604;2023-01-29T09:13:35;20.75;48.10
54540;SHT30;40438;52.992;18.604;2023-01-29T09:16:02;20.69;47.95
54540;SHT30;40438;52.992;18.604;2023-01-29T09:18:29;20.68;48.30
54540;SHT30;40438;52.992;18.604;2023-01-29T09:20:55;20.76;48.18
54540;SHT30;40438;52.992;18.604;2023-01-29T09:23:21;20.76;48.08
54540;SHT30;40438;52.992;18.604;2023-01-29T09:25:47;20.80;48.49
54540;SHT30;40438;52.992;18.604;2023-01-29T09:28:13;20.76;48.23
54540;SHT30;40438;52.992;18.604;2023-01-29T09:30:38;20.73;48.09
54540;SHT30;40438;52.992;18.604;2023-01-29T09:33:05;20.66;48.39
54540;SHT30;40438;52.992;18.604;2023-01-29T09:35:33;20.56;48.29
54540;SHT30;40438;52.992;18.604;2023-01-29T09:37:59;20.60;47.95
54540;SHT30;40438;52.992;18.604;2023-01-29T09:40:29;20.46;48.60
54540;SHT30;40438;52.992;18.604;2023-01-29T09:43:00;20.73;48.50
54540;SHT30;40438;52.992;18.604;2023-01-29T09:45:27;20.76;48.09
54540;SHT30;40438;52.992;18.604;2023-01-29T09:47:57;20.73;48.14
54540;SHT30;40438;52.992;18.604;2023-01-29T09:50:27;20.79;47.86
54540;SHT30;40438;52.992;18.604;2023-01-29T09:52:58;20.64;48.44
54540;SHT30;40438;52.992;18.604;2023-01-29T09:55:27;20.77;46.40
54540;SHT30;40438;52.992;18.604;2023-01-29T09:57:55;20.55;47.66
54540;SHT30;40438;52.992;18.604;2023-01-29T10:00:24;20.64;47.72
54540;SHT30;40438;52.992;18.604;2023-01-29T10:03:11;20.82;47.41
54540;SHT30;40438;52.992;18.604;2023-01-29T10:05:58;20.86;47.50
54540;SHT30;40438;52.992;18.604;2023-01-29T10:08:39;20.77;47.38
54540;SHT30;40438;52.992;18.604;2023-01-29T10:11:13;20.56;47.44
54540;SHT30;40438;52.992;18.604;2023-01-29T10:13:47;20.49;47.95
54540;SHT30;40438;52.992;18.604;2023-01-29T10:16:21;20.66;47.53
54540;SHT30;40438;52.992;18.604;2023-01-29T10:19:01;20.77;47.54
54540;SHT30;40438;52.992;18.604;2023-01-29T10:22:02;20.63;47.77
54540;SHT30;40438;52.992;18.604;2023-01-29T10:24:36;20.68;48.00
54540;SHT30;40438;52.992;18.604;2023-01-29T10:27:02;20.63;47.69
54540;SHT30;40438;52.992;18.604;2023-01-29T10:29:30;20.57;47.89
54540;SHT30;40438;52.992;18.604;2023-01-29T10:32:00;20.62;47.99
54540;SHT30;40438;52.992;18.604;2023-01-29T10:34:30;20.41;47.94
54540;SHT30;40438;52.992;18.604;2023-01-29T10:36:58;20.42;48.28
54540;SHT30;40438;52.992;18.604;2023-01-29T10:39:25;20.68;49.51
54540;SHT30;40438;52.992;18.604;2023-01-29T10:42:03;20.48;48.86
54540;SHT30;40438;52.992;18.604;2023-01-29T10:44:45;20.75;48.84
54540;SHT30;40438;52.992;18.604;2023-01-29T10:47:29;20.84;48.70
54540;SHT30;40438;52.992;18.604;2023-01-29T10:50:13;20.75;48.92
54540;SHT30;40438;52.992;18.604;2023-01-29T10:52:51;20.73;48.95
54540;SHT30;40438;52.992;18.604;2023-01-29T10:55:31;20.60;49.42
54540;SHT30;40438;52.992;18.604;2023-01-29T10:58:06;20.52;49.14
54540;SHT30;40438;52.992;18.604;2023-01-29T11:00:36;20.55;49.46
54540;SHT30;40438;52.992;18.604;2023-01-29T11:03:12;20.77;49.37
54540;SHT30;40438;52.992;18.604;2023-01-29T11:05:43;20.68;49.40
54540;SHT30;40438;52.992;18.604;2023-01-29T11:08:12;20.62;48.98
54540;SHT30;40438;52.992;18.604;2023-01-29T11:10:45;20.59;49.18
54540;SHT30;40438;52.992;18.604;2023-01-29T11:13:15;20.80;48.97
54540;SHT30;40438;52.992;18.604;2023-01-29T11:15:42;20.69;48.99
54540;SHT30;40438;52.992;18.604;2023-01-29T11:18:11;20.73;48.63
54540;SHT30;40438;52.992;18.604;2023-01-29T11:20:37;20.79;49.31
54540;SHT30;40438;52.992;18.604;2023-01-29T11:23:03;20.93;49.20
54540;SHT30;40438;52.992;18.604;2023-01-29T11:25:29;20.93;48.81
54540;SHT30;40438;52.992;18.604;2023-01-29T11:27:57;20.97;49.04
54540;SHT30;40438;52.992;18.604;2023-01-29T11:30:25;20.86;48.66
54540;SHT30;40438;52.992;18.604;2023-01-29T11:32:59;20.89;48.88
54540;SHT30;40438;52.992;18.604;2023-01-29T11:35:28;20.64;49.17
54540;SHT30;40438;52.992;18.604;2023-01-29T11:38:06;20.77;49.02
54540;SHT30;40438;52.992;18.604;2023-01-29T11:40:41;20.89;48.77
54540;SHT30;40438;52.992;18.604;2023-01-29T11:43:29;20.53;49.83
54540;SHT30;40438;52.992;18.604;2023-01-29T11:46:00;20.51;50.14
54540;SHT30;40438;52.992;18.604;2023-01-29T11:48:32;20.73;50.81
54540;SHT30;40438;52.992;18.604;2023-01-29T11:51:00;21.04;49.78
54540;SHT30;40438;52.992;18.604;2023-01-29T11:53:34;20.68;49.79
54540;SHT30;40438;52.992;18.604;2023-01-29T11:56:03;20.72;50.21
54540;SHT30;40438;52.992;18.604;2023-01-29T11:58:31;20.75;49.83
54540;SHT30;40438;52.992;18.604;2023-01-29T12:01:00;20.70;49.79
54540;SHT30;40438;52.992;18.604;2023-01-29T12:03:33;20.57;50.37
54540;SHT30;40438;52.992;18.604;2023-01-29T12:06:02;20.52;50.35
54540;SHT30;40438;52.992;18.604;2023-01-29T12:08:33;20.53;50.07
54540;SHT30;40438;52.992;18.604;2023-01-29T12:11:07;20.53;49.90
54540;SHT30;40438;52.992;18.604;2023-01-29T12:13:33;20.51;50.15
54540;SHT30;40438;52.992;18.604;2023-01-29T12:16:14;20.41;50.57
54540;SHT30;40438;52.992;18.604;2023-01-29T12:18:43;20.45;50.14
54540;SHT30;40438;52.992;18.604;2023-01-29T12:21:14;20.35;50.57
54540;SHT30;40438;52.992;18.604;2023-01-29T12:23:52;20.43;50.58
54540;SHT30;40438;52.992;18.604;2023-01-29T12:26:24;20.60;49.44
54540;SHT30;40438;52.992;18.604;2023-01-29T12:28:57;20.66;51.16
54540;SHT30;40438;52.992;18.604;2023-01-29T12:31:31;20.72;51.12
54540;SHT30;40438;52.992;18.604;2023-01-29T12:34:04;20.82;51.73
54540;SHT30;40438;52.992;18.604;2023-01-29T12:36:37;20.87;52.91
54540;SHT30;40438;52.992;18.604;2023-01-29T12:39:15;20.87;52.90
54540;SHT30;40438;52.992;18.604;2023-01-29T12:41:44;20.83;53.69
54540;SHT30;40438;52.992;18.604;2023-01-29T12:44:15;20.76;54.00
54540;SHT30;40438;52.992;18.604;2023-01-29T12:46:47;20.75;54.18
54540;SHT30;40438;52.992;18.604;2023-01-29T12:49:17;20.75;54.96
54540;SHT30;40438;52.992;18.604;2023-01-29T12:51:50;20.68;54.90
54540;SHT30;40438;52.992;18.604;2023-01-29T12:54:21;20.64;55.08
54540;SHT30;40438;52.992;18.604;2023-01-29T12:56:50;20.75;55.93
54540;SHT30;40438;52.992;18.604;2023-01-29T12:59:21;20.84;55.20
54540;SHT30;40438;52.992;18.604;2023-01-29T13:01:53;20.79;54.83
54540;SHT30;40438;52.992;18.604;2023-01-29T13:04:28;20.76;55.12
54540;SHT30;40438;52.992;18.604;2023-01-29T13:06:59;20.70;55.05
54540;SHT30;40438;52.992;18.604;2023-01-29T13:09:27;20.63;55.27
54540;SHT30;40438;52.992;18.604;2023-01-29T13:11:57;20.69;54.98
54540;SHT30;40438;52.992;18.604;2023-01-29T13:14:26;20.73;55.38
54540;SHT30;40438;52.992;18.604;2023-01-29T13:17:05;20.75;55.60
54540;SHT30;40438;52.992;18.604;2023-01-29T13:19:36;20.73;55.84
54540;SHT30;40438;52.992;18.604;2023-01-29T13:22:08;20.73;56.21
54540;SHT30;40438;52.992;18.604;2023-01-29T13:24:39;20.68;57.48
54540;SHT30;40438;52.992;18.604;2023-01-29T13:27:06;20.75;58.08
54540;SHT30;40438;52.992;18.604;2023-01-29T13:29:32;20.72;59.09
54540;SHT30;40438;52.992;18.604;2023-01-29T13:32:01;20.69;60.22
54540;SHT30;40438;52.992;18.604;2023-01-29T13:34:29;20.79;61.03
54540;SHT30;40438;52.992;18.604;2023-01-29T13:36:57;20.90;61.86
54540;SHT30;40438;52.992;18.604;2023-01-29T13:42:16;20.73;59.00
54540;SHT30;40438;52.992;18.604;2023-01-29T13:44:46;20.64;57.97
54540;SHT30;40438;52.992;18.604;2023-01-29T13:47:21;20.56;57.36
54540;SHT30;40438;52.992;18.604;2023-01-29T13:49:54;20.52;58.15
54540;SHT30;40438;52.992;18.604;2023-01-29T13:52:26;20.64;58.39
54540;SHT30;40438;52.992;18.604;2023-01-29T13:54:55;20.80;58.90
54540;SHT30;40438;52.992;18.604;2023-01-29T13:57:48;20.91;58.94
54540;SHT30;40438;52.992;18.604;2023-01-29T14:06:35;20.89;57.98
54540;SHT30;40438;52.992;18.604;2023-01-29T14:09:15;20.90;57.29
54540;SHT30;40438;52.992;18.604;2023-01-29T14:11:52;20.90;58.41
54540;SHT30;40438;52.992;18.604;2023-01-29T14:14:48;20.89;57.47
54540;SHT30;40438;52.992;18.604;2023-01-29T14:17:15;20.76;57.89
54540;SHT30;40438;52.992;18.604;2023-01-29T14:19:46;20.82;57.79
54540;SHT30;40438;52.992;18.604;2023-01-29T14:22:20;20.76;58.06
54540;SHT30;40438;52.992;18.604;2023-01-29T14:24:48;20.70;58.04
54540;SHT30;40438;52.992;18.604;2023-01-29T14:27:19;20.91;59.58
54540;SHT30;40438;52.992;18.604;2023-01-29T14:29:46;20.91;57.61
54540;SHT30;40438;52.992;18.604;2023-01-29T14:32:16;20.93;58.40
54540;SHT30;40438;52.992;18.604;2023-01-29T14:34:44;20.82;57.93
54540;SHT30;40438;52.992;18.604;2023-01-29T14:37:21;20.82;57.69
54540;SHT30;40438;52.992;18.604;2023-01-29T14:39:50;20.69;58.64
54540;SHT30;40438;52.992;18.604;2023-01-29T14:42:22;20.97;58.47
54540;SHT30;40438;52.992;18.604;2023-01-29T14:44:57;21.01;58.16
54540;SHT30;40438;52.992;18.604;2023-01-29T14:47:51;20.94;58.16
54540;SHT30;40438;52.992;18.604;2023-01-29T14:50:40;20.82;57.45
54540;SHT30;40438;52.992;18.604;2023-01-29T14:53:14;20.86;58.19
54540;SHT30;40438;52.992;18.604;2023-01-29T14:55:43;20.84;58.26
54540;SHT30;40438;52.992;18.604;2023-01-29T14:58:13;20.89;58.08
54540;SHT30;40438;52.992;18.604;2023-01-29T15:00:43;20.90;58.47
54540;SHT30;40438;52.992;18.604;2023-01-29T15:03:14;21.01;57.75
54540;SHT30;40438;52.992;18.604;2023-01-29T15:05:43;21.06;57.51
54540;SHT30;40438;52.992;18.604;2023-01-29T15:08:18;21.00;57.30
54540;SHT30;40438;52.992;18.604;2023-01-29T15:10:50;20.94;57.02
54540;SHT30;40438;52.992;18.604;2023-01-29T15:13:20;20.99;57.12
54540;SHT30;40438;52.992;18.604;2023-01-29T15:15:50;20.84;56.99
54540;SHT30;40438;52.992;18.604;2023-01-29T15:18:22;20.84;56.91
54540;SHT30;40438;52.992;18.604;2023-01-29T15:21:00;21.00;57.43
54540;SHT30;40438;52.992;18.604;2023-01-29T15:23:29;21.17;57.47
54540;SHT30;40438;52.992;18.604;2023-01-29T15:25:56;21.10;57.50
54540;SHT30;40438;52.992;18.604;2023-01-29T15:28:23;20.93;57.31
54540;SHT30;40438;52.992;18.604;2023-01-29T15:30:51;20.96;57.22
54540;SHT30;40438;52.992;18.604;2023-01-29T15:33:18;20.83;57.84
54540;SHT30;40438;52.992;18.604;2023-01-29T15:35:44;20.91;57.80
54540;SHT30;40438;52.992;18.604;2023-01-29T15:38:15;20.90;57.57
54540;SHT30;40438;52.992;18.604;2023-01-29T15:40:52;20.93;57.83